sensor_id;sensor_type;location;lat;lon;timestamp;temperature;humidity
78325;DHT22;67584;51.400;6.692;2023-04-24T00:00:18;11.00;77.30
78325;DHT22;67584;51.400;6.692;2023-04-24T00:02:44;10.90;78.50
78325;DHT22;67584;51.400;6.692;2023-04-24T00:05:13;10.90;78.00
78325;DHT22;67584;51.400;6.692;2023-04-24T00:07:42;10.80;78.20
78325;DHT22;67584;51.400;6.692;2023-04-24T00:10:09;10.90;78.70
78325;DHT22;67584;51.400;6.692;2023-04-24T00:12:35;10.90;77.50
78325;DHT22;67584;51.400;6.692;2023-04-24T00:15:02;10.90;76.80
78325;DHT22;67584;51.400;6.692;2023-04-24T00:17:28;11.00;76.60
78325;DHT22;67584;51.400;6.692;2023-04-24T00:19:54;10.90;75.90
78325;DHT22;67584;51.400;6.692;2023-04-24T00:22:27;11.00;75.80
78325;DHT22;67584;51.400;6.692;2023-04-24T00:24:54;11.00;75.40
78325;DHT22;67584;51.400;6.692;2023-04-24T00:27:20;10.80;75.50
78325;DHT22;67584;51.400;6.692;2023-04-24T00:29:46;10.70;75.60
78325;DHT22;67584;51.400;6.692;2023-04-24T00:32:11;10.70;75.70
78325;DHT22;67584;51.400;6.692;2023-04-24T00:34:37;10.70;75.90
78325;DHT22;67584;51.400;6.692;2023-04-24T00:37:03;10.50;76.20
78325;DHT22;67584;51.400;6.692;2023-04-24T00:39:28;10.40;76.30
78325;DHT22;67584;51.400;6.692;2023-04-24T00:41:54;10.40;76.60
78325;DHT22;67584;51.400;6.692;2023-04-24T00:44:21;10.40;77.10
78325;DHT22;67584;51.400;6.692;2023-04-24T00:46:46;10.20;77.70
78325;DHT22;67584;51.400;6.692;2023-04-24T00:49:18;10.30;78.10
78325;DHT22;67584;51.400;6.692;2023-04-24T00:51:43;10.20;78.30
78325;DHT22;67584;51.400;6.692;2023-04-24T00:54:12;10.10;78.00
78325;DHT22;67584;51.400;6.692;2023-04-24T00:56:38;10.00;78.20
78325;DHT22;67584;51.400;6.692;2023-04-24T00:59:03;9.90;78.20
78325;DHT22;67584;51.400;6.692;2023-04-24T01:01:29;9.80;78.60
78325;DHT22;67584;51.400;6.692;2023-04-24T01:03:56;9.70;78.50
78325;DHT22;67584;51.400;6.692;2023-04-24T01:06:23;9.70;78.50
78325;DHT22;67584;51.400;6.692;2023-04-24T01:08:54;9.60;79.70
78325;DHT22;67584;51.400;6.692;2023-04-24T01:11:21;9.60;79.60
78325;DHT22;67584;51.400;6.692;2023-04-24T01:13:47;9.50;79.80
78325;DHT22;67584;51.400;6.692;2023-04-24T01:16:14;9.30;79.90
78325;DHT22;67584;51.400;6.692;2023-04-24T01:18:40;9.40;80.20
78325;DHT22;67584;51.400;6.692;2023-04-24T01:21:08;9.30;80.30
78325;DHT22;67584;51.400;6.692;2023-04-24T01:23:34;9.40;80.20
78325;DHT22;67584;51.400;6.692;2023-04-24T01:26:00;9.50;79.60
78325;DHT22;67584;51.400;6.692;2023-04-24T01:28:26;9.60;79.60
78325;DHT22;67584;51.400;6.692;2023-04-24T01:30:52;9.50;79.50
78325;DHT22;67584;51.400;6.692;2023-04-24T01:33:22;9.70;79.50
78325;DHT22;67584;51.400;6.692;2023-04-24T01:35:48;9.60;79.30
78325;DHT22;67584;51.400;6.692;2023-04-24T01:38:14;9.60;78.80
78325;DHT22;67584;51.400;6.692;2023-04-24T01:40:40;9.70;79.00
78325;DHT22;67584;51.400;6.692;2023-04-24T01:43:06;9.70;79.10
78325;DHT22;67584;51.400;6.692;2023-04-24T01:45:32;9.70;79.30
78325;DHT22;67584;51.400;6.692;2023-04-24T01:47:58;9.70;79.30
78325;DHT22;67584;51.400;6.692;2023-04-24T01:50:25;9.70;79.50
78325;DHT22;67584;51.400;6.692;2023-04-24T01:52:51;9.70;79.40
78325;DHT22;67584;51.400;6.692;2023-04-24T01:55:17;9.70;79.90
78325;DHT22;67584;51.400;6.692;2023-04-24T01:57:44;9.60;80.00
78325;DHT22;67584;51.400;6.692;2023-04-24T02:00:10;9.50;79.70
78325;DHT22;67584;51.400;6.692;2023-04-24T02:02:40;9.60;79.80
78325;DHT22;67584;51.400;6.692;2023-04-24T02:05:07;9.50;79.90
78325;DHT22;67584;51.400;6.692;2023-04-24T02:07:35;9.50;80.10
78325;DHT22;67584;51.400;6.692;2023-04-24T02:10:02;9.50;79.90
78325;DHT22;67584;51.400;6.692;2023-04-24T02:12:29;9.40;80.20
78325;DHT22;67584;51.400;6.692;2023-04-24T02:14:55;9.50;80.30
78325;DHT22;67584;51.400;6.692;2023-04-24T02:17:20;9.40;80.10
78325;DHT22;67584;51.400;6.692;2023-04-24T02:19:46;9.50;80.70
78325;DHT22;67584;51.400;6.692;2023-04-24T02:22:12;9.50;80.60
78325;DHT22;67584;51.400;6.692;2023-04-24T02:24:38;9.30;80.40
78325;DHT22;67584;51.400;6.692;2023-04-24T02:27:03;9.30;80.40
78325;DHT22;67584;51.400;6.692;2023-04-24T02:29:29;9.30;80.30
78325;DHT22;67584;51.400;6.692;2023-04-24T02:31:55;9.40;80.20
78325;DHT22;67584;51.400;6.692;2023-04-24T02:34:21;9.40;80.20
78325;DHT22;67584;51.400;6.692;2023-04-24T02:36:48;9.50;80.10
78325;DHT22;67584;51.400;6.692;2023-04-24T02:39:14;9.40;80.20
78325;DHT22;67584;51.400;6.692;2023-04-24T02:41:42;9.40;80.10
78325;DHT22;67584;51.400;6.692;2023-04-24T02:44:08;9.40;80.40
78325;DHT22;67584;51.400;6.692;2023-04-24T02:46:34;9.50;80.40
78325;DHT22;67584;51.400;6.692;2023-04-24T02:49:00;9.40;80.30
78325;DHT22;67584;51.400;6.692;2023-04-24T02:51:25;9.50;80.20
78325;DHT22;67584;51.400;6.692;2023-04-24T02:53:52;9.40;80.40
78325;DHT22;67584;51.400;6.692;2023-04-24T02:56:18;9.50;80.30
78325;DHT22;67584;51.400;6.692;2023-04-24T02:58:44;9.40;80.50
78325;DHT22;67584;51.400;6.692;2023-04-24T03:01:09;9.50;80.30
78325;DHT22;67584;51.400;6.692;2023-04-24T03:03:36;9.50;80.40
78325;DHT22;67584;51.400;6.692;2023-04-24T03:06:02;9.50;80.00
78325;DHT22;67584;51.400;6.692;2023-04-24T03:08:27;9.50;80.10
78325;DHT22;67584;51.400;6.692;2023-04-24T03:10:53;9.50;80.30
78325;DHT22;67584;51.400;6.692;2023-04-24T03:13:19;9.50;80.20
78325;DHT22;67584;51.400;6.692;2023-04-24T03:15:44;9.50;80.50
78325;DHT22;67584;51.400;6.692;2023-04-24T03:18:11;9.50;80.30
78325;DHT22;67584;51.400;6.692;2023-04-24T03:20:37;9.50;80.30
78325;DHT22;67584;51.400;6.692;2023-04-24T03:23:03;9.50;80.20
78325;DHT22;67584;51.400;6.692;2023-04-24T03:25:29;9.40;80.50
78325;DHT22;67584;51.400;6.692;2023-04-24T03:27:55;9.50;80.10
78325;DHT22;67584;51.400;6.692;2023-04-24T03:30:53;9.40;80.40
78325;DHT22;67584;51.400;6.692;2023-04-24T03:33:20;9.50;80.40
78325;DHT22;67584;51.400;6.692;2023-04-24T03:36:14;9.50;80.10
78325;DHT22;67584;51.400;6.692;2023-04-24T03:38:41;9.50;79.90
78325;DHT22;67584;51.400;6.692;2023-04-24T03:41:23;9.60;79.60
78325;DHT22;67584;51.400;6.692;2023-04-24T03:43:53;9.60;79.60
78325;DHT22;67584;51.400;6.692;2023-04-24T03:46:19;9.60;79.60
78325;DHT22;67584;51.400;6.692;2023-04-24T03:48:51;9.60;79.30
78325;DHT22;67584;51.400;6.692;2023-04-24T03:51:19;9.60;79.60
78325;DHT22;67584;51.400;6.692;2023-04-24T03:53:48;9.60;80.00
78325;DHT22;67584;51.400;6.692;2023-04-24T03:56:17;9.50;79.80
78325;DHT22;67584;51.400;6.692;2023-04-24T03:58:43;9.60;79.70
78325;DHT22;67584;51.400;6.692;2023-04-24T04:01:09;9.50;79.60
78325;DHT22;67584;51.400;6.692;2023-04-24T04:03:47;9.50;79.60
78325;DHT22;67584;51.400;6.692;2023-04-24T04:06:16;9.50;79.60
78325;DHT22;67584;51.400;6.692;2023-04-24T04:08:43;9.60;79.20
78325;DHT22;67584;51.400;6.692;2023-04-24T04:11:09;9.60;79.40
78325;DHT22;67584;51.400;6.692;2023-04-24T04:13:35;9.50;79.80
78325;DHT22;67584;51.400;6.692;2023-04-24T04:16:01;9.50;79.90
78325;DHT22;67584;51.400;6.692;2023-04-24T04:18:26;9.50;79.50
78325;DHT22;67584;51.400;6.692;2023-04-24T04:20:53;9.50;79.70
78325;DHT22;67584;51.400;6.692;2023-04-24T04:23:19;9.50;79.60
78325;DHT22;67584;51.400;6.692;2023-04-24T04:26:07;9.50;79.50
78325;DHT22;67584;51.400;6.692;2023-04-24T04:28:52;9.40;79.40
78325;DHT22;67584;51.400;6.692;2023-04-24T04:31:20;9.50;79.20
78325;DHT22;67584;51.400;6.692;2023-04-24T04:33:46;9.50;79.50
78325;DHT22;67584;51.400;6.692;2023-04-24T04:36:12;9.50;79.50
78325;DHT22;67584;51.400;6.692;2023-04-24T04:38:42;9.50;79.10
78325;DHT22;67584;51.400;6.692;2023-04-24T04:41:18;9.50;79.20
78325;DHT22;67584;51.400;6.692;2023-04-24T04:43:45;9.50;79.10
78325;DHT22;67584;51.400;6.692;2023-04-24T04:46:12;9.60;79.20
78325;DHT22;67584;51.400;6.692;2023-04-24T04:49:07;9.40;79.00
78325;DHT22;67584;51.400;6.692;2023-04-24T04:51:34;9.50;78.40
78325;DHT22;67584;51.400;6.692;2023-04-24T04:54:00;9.50;78.80
78325;DHT22;67584;51.400;6.692;2023-04-24T04:56:26;9.40;78.60
78325;DHT22;67584;51.400;6.692;2023-04-24T04:58:52;9.40;78.40
78325;DHT22;67584;51.400;6.692;2023-04-24T05:01:18;9.40;79.10
78325;DHT22;67584;51.400;6.692;2023-04-24T05:03:46;9.30;80.10
78325;DHT22;67584;51.400;6.692;2023-04-24T05:06:14;9.10;80.70
78325;DHT22;67584;51.400;6.692;2023-04-24T05:08:40;9.10;81.70
78325;DHT22;67584;51.400;6.692;2023-04-24T05:11:10;9.00;82.00
78325;DHT22;67584;51.400;6.692;2023-04-24T05:13:37;8.90;83.50
78325;DHT22;67584;51.400;6.692;2023-04-24T05:16:06;8.70;85.30
78325;DHT22;67584;51.400;6.692;2023-04-24T05:18:32;8.50;86.50
78325;DHT22;67584;51.400;6.692;2023-04-24T05:20:58;8.40;87.50
78325;DHT22;67584;51.400;6.692;2023-04-24T05:23:24;8.20;88.10
78325;DHT22;67584;51.400;6.692;2023-04-24T05:25:52;8.10;88.20
78325;DHT22;67584;51.400;6.692;2023-04-24T05:28:19;8.20;88.20
78325;DHT22;67584;51.400;6.692;2023-04-24T05:30:52;8.10;88.60
78325;DHT22;67584;51.400;6.692;2023-04-24T05:33:19;8.30;88.30
78325;DHT22;67584;51.400;6.692;2023-04-24T05:35:45;8.20;87.60
78325;DHT22;67584;51.400;6.692;2023-04-24T05:38:12;8.30;87.30
78325;DHT22;67584;51.400;6.692;2023-04-24T05:40:39;8.40;86.70
78325;DHT22;67584;51.400;6.692;2023-04-24T05:43:05;8.60;86.30
78325;DHT22;67584;51.400;6.692;2023-04-24T05:45:30;8.60;85.70
78325;DHT22;67584;51.400;6.692;2023-04-24T05:47:57;8.70;85.30
78325;DHT22;67584;51.400;6.692;2023-04-24T05:50:22;8.70;84.90
78325;DHT22;67584;51.400;6.692;2023-04-24T05:52:48;8.70;84.20
78325;DHT22;67584;51.400;6.692;2023-04-24T05:55:25;8.70;84.70
78325;DHT22;67584;51.400;6.692;2023-04-24T05:57:52;8.70;85.00
78325;DHT22;67584;51.400;6.692;2023-04-24T06:00:18;8.70;86.50
78325;DHT22;67584;51.400;6.692;2023-04-24T06:02:51;8.50;87.40
78325;DHT22;67584;51.400;6.692;2023-04-24T06:05:18;8.40;87.70
78325;DHT22;67584;51.400;6.692;2023-04-24T06:07:44;8.40;88.30
78325;DHT22;67584;51.400;6.692;2023-04-24T06:10:10;8.30;88.80
78325;DHT22;67584;51.400;6.692;2023-04-24T06:12:41;8.20;88.00
78325;DHT22;67584;51.400;6.692;2023-04-24T06:15:13;8.20;88.60
78325;DHT22;67584;51.400;6.692;2023-04-24T06:18:08;8.30;88.70
78325;DHT22;67584;51.400;6.692;2023-04-24T06:20:36;8.30;88.20
78325;DHT22;67584;51.400;6.692;2023-04-24T06:23:01;8.30;88.20
78325;DHT22;67584;51.400;6.692;2023-04-24T06:25:27;8.40;88.60
78325;DHT22;67584;51.400;6.692;2023-04-24T06:27:54;8.40;88.70
78325;DHT22;67584;51.400;6.692;2023-04-24T06:30:20;8.40;88.20
78325;DHT22;67584;51.400;6.692;2023-04-24T06:32:45;8.20;88.80
78325;DHT22;67584;51.400;6.692;2023-04-24T06:35:11;8.20;89.00
78325;DHT22;67584;51.400;6.692;2023-04-24T06:37:39;8.20;89.70
78325;DHT22;67584;51.400;6.692;2023-04-24T06:40:06;8.30;89.40
78325;DHT22;67584;51.400;6.692;2023-04-24T06:42:32;8.40;88.90
78325;DHT22;67584;51.400;6.692;2023-04-24T06:44:58;8.40;89.40
78325;DHT22;67584;51.400;6.692;2023-04-24T06:47:24;8.40;89.70
78325;DHT22;67584;51.400;6.692;2023-04-24T06:49:49;8.30;89.80
78325;DHT22;67584;51.400;6.692;2023-04-24T06:52:16;8.30;89.10
78325;DHT22;67584;51.400;6.692;2023-04-24T06:54:42;8.40;89.70
78325;DHT22;67584;51.400;6.692;2023-04-24T06:57:08;8.30;89.70
78325;DHT22;67584;51.400;6.692;2023-04-24T06:59:35;8.30;90.10
78325;DHT22;67584;51.400;6.692;2023-04-24T07:02:01;8.50;90.00
78325;DHT22;67584;51.400;6.692;2023-04-24T07:04:27;8.50;89.90
78325;DHT22;67584;51.400;6.692;2023-04-24T07:06:53;8.40;89.50
78325;DHT22;67584;51.400;6.692;2023-04-24T07:09:23;8.50;89.00
78325;DHT22;67584;51.400;6.692;2023-04-24T07:11:51;8.40;88.90
78325;DHT22;67584;51.400;6.692;2023-04-24T07:14:17;8.20;89.80
78325;DHT22;67584;51.400;6.692;2023-04-24T07:16:43;8.20;89.30
78325;DHT22;67584;51.400;6.692;2023-04-24T07:19:09;8.30;90.30
78325;DHT22;67584;51.400;6.692;2023-04-24T07:21:35;8.20;90.50
78325;DHT22;67584;51.400;6.692;2023-04-24T07:24:01;8.10;90.40
78325;DHT22;67584;51.400;6.692;2023-04-24T07:26:27;8.00;89.90
78325;DHT22;67584;51.400;6.692;2023-04-24T07:28:53;7.80;90.00
78325;DHT22;67584;51.400;6.692;2023-04-24T07:31:19;7.80;89.00
78325;DHT22;67584;51.400;6.692;2023-04-24T07:33:45;7.40;89.50
78325;DHT22;67584;51.400;6.692;2023-04-24T07:36:11;7.40;90.20
78325;DHT22;67584;51.400;6.692;2023-04-24T07:38:42;7.50;90.80
78325;DHT22;67584;51.400;6.692;2023-04-24T07:41:07;7.50;90.20
78325;DHT22;67584;51.400;6.692;2023-04-24T07:43:33;7.50;90.80
78325;DHT22;67584;51.400;6.692;2023-04-24T07:45:59;7.30;91.10
78325;DHT22;67584;51.400;6.692;2023-04-24T07:48:25;7.50;90.60
78325;DHT22;67584;51.400;6.692;2023-04-24T07:50:52;7.30;91.20
78325;DHT22;67584;51.400;6.692;2023-04-24T07:53:18;7.60;91.10
78325;DHT22;67584;51.400;6.692;2023-04-24T07:55:44;7.40;91.00
78325;DHT22;67584;51.400;6.692;2023-04-24T07:58:09;7.50;91.60
78325;DHT22;67584;51.400;6.692;2023-04-24T08:00:35;7.40;91.10
78325;DHT22;67584;51.400;6.692;2023-04-24T08:03:01;7.60;91.30
78325;DHT22;67584;51.400;6.692;2023-04-24T08:05:27;7.60;91.50
78325;DHT22;67584;51.400;6.692;2023-04-24T08:07:54;7.60;91.20
78325;DHT22;67584;51.400;6.692;2023-04-24T08:10:24;7.80;91.90
78325;DHT22;67584;51.400;6.692;2023-04-24T08:12:50;7.60;91.40
78325;DHT22;67584;51.400;6.692;2023-04-24T08:15:16;7.70;91.70
78325;DHT22;67584;51.400;6.692;2023-04-24T08:17:42;7.60;92.00
78325;DHT22;67584;51.400;6.692;2023-04-24T08:20:09;7.70;91.20
78325;DHT22;67584;51.400;6.692;2023-04-24T08:22:40;7.70;91.90
78325;DHT22;67584;51.400;6.692;2023-04-24T08:25:06;7.90;90.60
78325;DHT22;67584;51.400;6.692;2023-04-24T08:27:32;8.00;91.60
78325;DHT22;67584;51.400;6.692;2023-04-24T08:29:58;8.00;91.80
78325;DHT22;67584;51.400;6.692;2023-04-24T08:32:25;7.90;92.10
78325;DHT22;67584;51.400;6.692;2023-04-24T08:34:54;8.10;92.10
78325;DHT22;67584;51.400;6.692;2023-04-24T08:37:25;8.20;92.10
78325;DHT22;67584;51.400;6.692;2023-04-24T08:39:51;8.30;92.20
78325;DHT22;67584;51.400;6.692;2023-04-24T08:42:18;8.30;92.10
78325;DHT22;67584;51.400;6.692;2023-04-24T08:44:44;8.40;91.90
78325;DHT22;67584;51.400;6.692;2023-04-24T08:47:11;8.30;91.80
78325;DHT22;67584;51.400;6.692;2023-04-24T08:49:38;8.20;92.00
78325;DHT22;67584;51.400;6.692;2023-04-24T08:52:05;8.00;91.90
78325;DHT22;67584;51.400;6.692;2023-04-24T08:54:31;8.00;92.00
78325;DHT22;67584;51.400;6.692;2023-04-24T08:57:01;8.00;92.10
78325;DHT22;67584;51.400;6.692;2023-04-24T08:59:29;8.00;92.20
78325;DHT22;67584;51.400;6.692;2023-04-24T09:01:56;8.10;92.10
78325;DHT22;67584;51.400;6.692;2023-04-24T09:04:23;8.20;91.90
78325;DHT22;67584;51.400;6.692;2023-04-24T09:06:57;8.20;92.10
78325;DHT22;67584;51.400;6.692;2023-04-24T09:09:24;8.20;92.00
78325;DHT22;67584;51.400;6.692;2023-04-24T09:11:51;8.10;91.90
78325;DHT22;67584;51.400;6.692;2023-04-24T09:14:20;8.10;92.20
78325;DHT22;67584;51.400;6.692;2023-04-24T09:16:46;8.10;92.00
78325;DHT22;67584;51.400;6.692;2023-04-24T09:19:12;8.00;92.00
78325;DHT22;67584;51.400;6.692;2023-04-24T09:21:38;8.00;92.20
78325;DHT22;67584;51.400;6.692;2023-04-24T09:24:07;8.00;92.00
78325;DHT22;67584;51.400;6.692;2023-04-24T09:26:35;7.80;92.10
78325;DHT22;67584;51.400;6.692;2023-04-24T09:29:03;7.80;92.10
78325;DHT22;67584;51.400;6.692;2023-04-24T09:31:29;7.70;92.20
78325;DHT22;67584;51.400;6.692;2023-04-24T09:34:00;7.70;92.20
78325;DHT22;67584;51.400;6.692;2023-04-24T09:36:36;8.10;92.20
78325;DHT22;67584;51.400;6.692;2023-04-24T09:39:07;8.00;92.10
78325;DHT22;67584;51.400;6.692;2023-04-24T09:41:34;7.90;92.10
78325;DHT22;67584;51.400;6.692;2023-04-24T09:44:13;7.90;92.20
78325;DHT22;67584;51.400;6.692;2023-04-24T09:46:41;7.90;92.20
78325;DHT22;67584;51.400;6.692;2023-04-24T09:49:08;8.10;92.20
78325;DHT22;67584;51.400;6.692;2023-04-24T09:51:36;8.10;92.20
78325;DHT22;67584;51.400;6.692;2023-04-24T09:54:04;8.00;92.20
78325;DHT22;67584;51.400;6.692;2023-04-24T09:56:33;8.10;92.20
78325;DHT22;67584;51.400;6.692;2023-04-24T09:59:06;8.20;92.20
78325;DHT22;67584;51.400;6.692;2023-04-24T10:01:33;8.40;92.20
78325;DHT22;67584;51.400;6.692;2023-04-24T10:03:58;8.50;92.20
78325;DHT22;67584;51.400;6.692;2023-04-24T10:06:34;8.50;92.10
78325;DHT22;67584;51.400;6.692;2023-04-24T10:09:00;8.50;92.00
78325;DHT22;67584;51.400;6.692;2023-04-24T10:11:30;8.40;92.00
78325;DHT22;67584;51.400;6.692;2023-04-24T10:13:56;8.40;92.00
78325;DHT22;67584;51.400;6.692;2023-04-24T10:16:23;8.30;92.00
78325;DHT22;67584;51.400;6.692;2023-04-24T10:18:49;8.50;91.50
78325;DHT22;67584;51.400;6.692;2023-04-24T10:21:17;8.60;92.10
78325;DHT22;67584;51.400;6.692;2023-04-24T10:23:43;8.70;92.20
78325;DHT22;67584;51.400;6.692;2023-04-24T10:26:12;8.70;91.60
78325;DHT22;67584;51.400;6.692;2023-04-24T10:28:45;8.70;92.10
78325;DHT22;67584;51.400;6.692;2023-04-24T10:31:12;8.70;91.60
78325;DHT22;67584;51.400;6.692;2023-04-24T10:33:42;8.70;90.80
78325;DHT22;67584;51.400;6.692;2023-04-24T10:36:09;8.60;91.20
78325;DHT22;67584;51.400;6.692;2023-04-24T10:38:37;8.70;91.80
78325;DHT22;67584;51.400;6.692;2023-04-24T10:41:08;8.70;92.00
78325;DHT22;67584;51.400;6.692;2023-04-24T10:43:35;8.70;91.60
78325;DHT22;67584;51.400;6.692;2023-04-24T10:46:05;8.90;91.90
78325;DHT22;67584;51.400;6.692;2023-04-24T10:48:32;8.90;90.90
78325;DHT22;67584;51.400;6.692;2023-04-24T10:50:58;9.10;89.90
78325;DHT22;67584;51.400;6.692;2023-04-24T10:53:27;9.50;89.10
78325;DHT22;67584;51.400;6.692;2023-04-24T10:56:07;9.20;88.30
78325;DHT22;67584;51.400;6.692;2023-04-24T11:01:04;9.80;88.40
78325;DHT22;67584;51.400;6.692;2023-04-24T11:03:31;9.80;87.90
78325;DHT22;67584;51.400;6.692;2023-04-24T11:05:59;9.70;86.60
78325;DHT22;67584;51.400;6.692;2023-04-24T11:11:03;9.00;86.10
78325;DHT22;67584;51.400;6.692;2023-04-24T11:16:42;8.90;85.20
78325;DHT22;67584;51.400;6.692;2023-04-24T11:24:28;9.00;84.60
78325;DHT22;67584;51.400;6.692;2023-04-24T11:26:56;9.00;83.80
78325;DHT22;67584;51.400;6.692;2023-04-24T11:29:22;9.50;82.40
78325;DHT22;67584;51.400;6.692;2023-04-24T11:31:48;9.40;81.30
78325;DHT22;67584;51.400;6.692;2023-04-24T11:34:17;9.80;81.60
78325;DHT22;67584;51.400;6.692;2023-04-24T11:36:45;10.00;83.70
78325;DHT22;67584;51.400;6.692;2023-04-24T11:39:11;10.30;81.40
78325;DHT22;67584;51.400;6.692;2023-04-24T11:41:37;10.50;80.20
78325;DHT22;67584;51.400;6.692;2023-04-24T11:44:05;10.80;77.40
78325;DHT22;67584;51.400;6.692;2023-04-24T11:46:31;10.60;76.60
78325;DHT22;67584;51.400;6.692;2023-04-24T11:48:58;10.40;80.00
78325;DHT22;67584;51.400;6.692;2023-04-24T11:51:24;10.10;78.40
78325;DHT22;67584;51.400;6.692;2023-04-24T11:53:54;9.70;78.40
78325;DHT22;67584;51.400;6.692;2023-04-24T11:56:24;9.40;80.00
78325;DHT22;67584;51.400;6.692;2023-04-24T11:58:52;9.30;78.50
78325;DHT22;67584;51.400;6.692;2023-04-24T12:01:18;9.40;83.60
78325;DHT22;67584;51.400;6.692;2023-04-24T12:03:50;9.30;78.40
78325;DHT22;67584;51.400;6.692;2023-04-24T12:06:16;9.30;77.50
78325;DHT22;67584;51.400;6.692;2023-04-24T12:08:46;9.30;76.70
78325;DHT22;67584;51.400;6.692;2023-04-24T12:11:15;9.40;79.00
78325;DHT22;67584;51.400;6.692;2023-04-24T12:13:41;9.40;77.50
78325;DHT22;67584;51.400;6.692;2023-04-24T12:16:06;9.40;75.90
78325;DHT22;67584;51.400;6.692;2023-04-24T12:18:32;9.50;75.40
78325;DHT22;67584;51.400;6.692;2023-04-24T12:21:21;9.60;74.70
78325;DHT22;67584;51.400;6.692;2023-04-24T12:23:47;9.90;75.40
78325;DHT22;67584;51.400;6.692;2023-04-24T12:26:17;10.10;74.80
78325;DHT22;67584;51.400;6.692;2023-04-24T12:28:47;10.30;75.30
78325;DHT22;67584;51.400;6.692;2023-04-24T12:31:14;10.50;74.70
78325;DHT22;67584;51.400;6.692;2023-04-24T12:33:40;10.50;74.10
78325;DHT22;67584;51.400;6.692;2023-04-24T12:36:09;10.60;72.90
78325;DHT22;67584;51.400;6.692;2023-04-24T12:38:35;10.30;74.80
78325;DHT22;67584;51.400;6.692;2023-04-24T12:41:14;10.30;73.50
78325;DHT22;67584;51.400;6.692;2023-04-24T12:43:51;10.40;72.10
78325;DHT22;67584;51.400;6.692;2023-04-24T12:46:17;10.50;73.20
78325;DHT22;67584;51.400;6.692;2023-04-24T12:48:43;10.80;72.60
78325;DHT22;67584;51.400;6.692;2023-04-24T12:51:09;10.40;69.50
78325;DHT22;67584;51.400;6.692;2023-04-24T12:53:35;10.20;74.70
78325;DHT22;67584;51.400;6.692;2023-04-24T12:56:00;10.10;70.80
78325;DHT22;67584;51.400;6.692;2023-04-24T12:58:26;10.10;73.80
78325;DHT22;67584;51.400;6.692;2023-04-24T13:00:51;10.20;73.30
78325;DHT22;67584;51.400;6.692;2023-04-24T13:03:18;10.20;73.50
78325;DHT22;67584;51.400;6.692;2023-04-24T13:05:43;10.20;72.40
78325;DHT22;67584;51.400;6.692;2023-04-24T13:08:09;10.10;74.00
78325;DHT22;67584;51.400;6.692;2023-04-24T13:10:35;10.10;73.20
78325;DHT22;67584;51.400;6.692;2023-04-24T13:13:01;9.90;73.40
78325;DHT22;67584;51.400;6.692;2023-04-24T13:15:27;9.90;73.40
78325;DHT22;67584;51.400;6.692;2023-04-24T13:17:52;10.00;73.10
78325;DHT22;67584;51.400;6.692;2023-04-24T13:20:18;10.10;71.40
78325;DHT22;67584;51.400;6.692;2023-04-24T13:22:44;10.20;71.40
78325;DHT22;67584;51.400;6.692;2023-04-24T13:25:09;10.50;72.40
78325;DHT22;67584;51.400;6.692;2023-04-24T13:27:37;11.00;68.60
78325;DHT22;67584;51.400;6.692;2023-04-24T13:30:03;11.20;69.40
78325;DHT22;67584;51.400;6.692;2023-04-24T13:32:29;11.40;67.90
78325;DHT22;67584;51.400;6.692;2023-04-24T13:34:55;11.40;66.50
78325;DHT22;67584;51.400;6.692;2023-04-24T13:37:24;11.10;68.10
78325;DHT22;67584;51.400;6.692;2023-04-24T13:39:50;11.00;67.50
78325;DHT22;67584;51.400;6.692;2023-04-24T13:42:16;11.00;68.30
78325;DHT22;67584;51.400;6.692;2023-04-24T13:44:42;11.00;69.20
78325;DHT22;67584;51.400;6.692;2023-04-24T13:47:07;11.40;70.40
78325;DHT22;67584;51.400;6.692;2023-04-24T13:49:33;11.80;66.50
78325;DHT22;67584;51.400;6.692;2023-04-24T13:51:59;11.80;65.50
78325;DHT22;67584;51.400;6.692;2023-04-24T13:54:24;12.00;65.70
78325;DHT22;67584;51.400;6.692;2023-04-24T13:56:51;12.50;66.10
78325;DHT22;67584;51.400;6.692;2023-04-24T13:59:22;13.10;63.70
78325;DHT22;67584;51.400;6.692;2023-04-24T14:01:47;13.00;60.10
78325;DHT22;67584;51.400;6.692;2023-04-24T14:04:21;12.80;60.90
78325;DHT22;67584;51.400;6.692;2023-04-24T14:06:46;12.70;61.30
78325;DHT22;67584;51.400;6.692;2023-04-24T14:09:12;12.80;60.40
78325;DHT22;67584;51.400;6.692;2023-04-24T14:11:38;13.00;63.10
78325;DHT22;67584;51.400;6.692;2023-04-24T14:14:04;12.70;60.30
78325;DHT22;67584;51.400;6.692;2023-04-24T14:16:30;12.40;60.20
78325;DHT22;67584;51.400;6.692;2023-04-24T14:18:56;12.00;61.90
78325;DHT22;67584;51.400;6.692;2023-04-24T14:21:22;11.70;63.30
78325;DHT22;67584;51.400;6.692;2023-04-24T14:23:47;11.70;64.50
78325;DHT22;67584;51.400;6.692;2023-04-24T14:26:13;11.40;64.30
78325;DHT22;67584;51.400;6.692;2023-04-24T14:28:39;11.10;62.50
78325;DHT22;67584;51.400;6.692;2023-04-24T14:31:05;10.90;64.00
78325;DHT22;67584;51.400;6.692;2023-04-24T14:33:30;10.80;63.80
78325;DHT22;67584;51.400;6.692;2023-04-24T14:35:56;10.60;64.50
78325;DHT22;67584;51.400;6.692;2023-04-24T14:38:22;10.60;64.20
78325;DHT22;67584;51.400;6.692;2023-04-24T14:40:48;10.50;64.40
78325;DHT22;67584;51.400;6.692;2023-04-24T14:43:13;10.50;65.90
78325;DHT22;67584;51.400;6.692;2023-04-24T14:45:39;10.60;66.00
78325;DHT22;67584;51.400;6.692;2023-04-24T14:48:07;10.70;66.80
78325;DHT22;67584;51.400;6.692;2023-04-24T14:50:33;10.70;68.60
78325;DHT22;67584;51.400;6.692;2023-04-24T14:52:59;10.80;67.60
78325;DHT22;67584;51.400;6.692;2023-04-24T14:55:25;11.00;66.20
78325;DHT22;67584;51.400;6.692;2023-04-24T14:57:51;11.20;65.40
78325;DHT22;67584;51.400;6.692;2023-04-24T15:00:17;11.20;65.70
78325;DHT22;67584;51.400;6.692;2023-04-24T15:02:43;11.40;66.00
78325;DHT22;67584;51.400;6.692;2023-04-24T15:05:10;12.00;65.50
78325;DHT22;67584;51.400;6.692;2023-04-24T15:07:37;12.10;65.20
78325;DHT22;67584;51.400;6.692;2023-04-24T15:10:03;11.80;67.50
78325;DHT22;67584;51.400;6.692;2023-04-24T15:12:29;11.80;67.50
78325;DHT22;67584;51.400;6.692;2023-04-24T15:14:55;13.00;67.20
78325;DHT22;67584;51.400;6.692;2023-04-24T15:17:20;14.60;59.90
78325;DHT22;67584;51.400;6.692;2023-04-24T15:19:46;14.50;59.00
78325;DHT22;67584;51.400;6.692;2023-04-24T15:22:12;15.10;54.70
78325;DHT22;67584;51.400;6.692;2023-04-24T15:24:37;16.20;51.90
78325;DHT22;67584;51.400;6.692;2023-04-24T15:27:03;18.20;49.40
78325;DHT22;67584;51.400;6.692;2023-04-24T15:29:29;17.30;48.50
78325;DHT22;67584;51.400;6.692;2023-04-24T15:31:54;15.20;53.90
78325;DHT22;67584;51.400;6.692;2023-04-24T15:34:20;14.20;57.10
78325;DHT22;67584;51.400;6.692;2023-04-24T15:36:46;13.50;59.00
78325;DHT22;67584;51.400;6.692;2023-04-24T15:39:12;13.10;60.80
78325;DHT22;67584;51.400;6.692;2023-04-24T15:41:38;13.10;60.80
78325;DHT22;67584;51.400;6.692;2023-04-24T15:44:03;13.00;62.10
78325;DHT22;67584;51.400;6.692;2023-04-24T15:46:29;12.80;62.10
78325;DHT22;67584;51.400;6.692;2023-04-24T15:48:55;12.30;63.40
78325;DHT22;67584;51.400;6.692;2023-04-24T15:51:20;12.50;63.50
78325;DHT22;67584;51.400;6.692;2023-04-24T15:53:46;13.00;59.00
78325;DHT22;67584;51.400;6.692;2023-04-24T15:56:12;12.50;59.10